sensor_id;sensor_type;location;lat;lon;timestamp;pressure;altitude;pressure_sealevel;temperature;humidity
39487;BME280;25173;50.430;18.926;2023-04-24T00:01:34;97344.06;;;15.21;51.85
39487;BME280;25173;50.430;18.926;2023-04-24T00:04:37;97341.81;;;15.23;51.95
39487;BME280;25173;50.430;18.926;2023-04-24T00:07:41;97333.41;;;15.28;51.82
39487;BME280;25173;50.430;18.926;2023-04-24T00:10:42;97332.28;;;15.29;52.03
39487;BME280;25173;50.430;18.926;2023-04-24T00:13:42;97331.97;;;15.30;51.79
39487;BME280;25173;50.430;18.926;2023-04-24T00:16:43;97330.03;;;15.31;52.07
39487;BME280;25173;50.430;18.926;2023-04-24T00:19:43;97333.41;;;15.28;52.14
39487;BME280;25173;50.430;18.926;2023-04-24T00:22:44;97329.03;;;15.27;52.30
39487;BME280;25173;50.430;18.926;2023-04-24T00:25:45;97322.13;;;15.29;52.31
39487;BME280;25173;50.430;18.926;2023-04-24T00:28:45;97323.41;;;15.32;52.28
39487;BME280;25173;50.430;18.926;2023-04-24T00:31:46;97315.69;;;15.34;52.28
39487;BME280;25173;50.430;18.926;2023-04-24T00:34:48;97308.72;;;15.36;52.26
39487;BME280;25173;50.430;18.926;2023-04-24T00:37:48;97304.03;;;15.37;52.31
39487;BME280;25173;50.430;18.926;2023-04-24T00:40:50;97298.53;;;15.37;52.40
39487;BME280;25173;50.430;18.926;2023-04-24T00:43:52;97300.97;;;15.38;52.49
39487;BME280;25173;50.430;18.926;2023-04-24T00:46:54;97296.09;;;15.44;52.42
39487;BME280;25173;50.430;18.926;2023-04-24T00:49:55;97300.97;;;15.38;52.52
39487;BME280;25173;50.430;18.926;2023-04-24T00:52:56;97293.22;;;15.32;52.65
39487;BME280;25173;50.430;18.926;2023-04-24T00:55:57;97284.69;;;15.25;52.93
39487;BME280;25173;50.430;18.926;2023-04-24T00:58:58;97278.22;;;15.21;53.14
39487;BME280;25173;50.430;18.926;2023-04-24T01:01:59;97283.72;;;15.21;53.17
39487;BME280;25173;50.430;18.926;2023-04-24T01:05:01;97282.59;;;15.22;53.11
39487;BME280;25173;50.430;18.926;2023-04-24T01:08:02;97285.34;;;15.22;53.15
39487;BME280;25173;50.430;18.926;2023-04-24T01:11:04;97280.03;;;15.17;53.05
39487;BME280;25173;50.430;18.926;2023-04-24T01:14:05;97281.16;;;15.15;53.12
39487;BME280;25173;50.430;18.926;2023-04-24T01:17:06;97276.00;;;15.14;53.31
39487;BME280;25173;50.430;18.926;2023-04-24T01:20:07;97273.75;;;15.07;53.44
39487;BME280;25173;50.430;18.926;2023-04-24T01:23:09;97277.63;;;15.06;53.29
39487;BME280;25173;50.430;18.926;2023-04-24T01:26:10;97272.13;;;15.06;53.39
39487;BME280;25173;50.430;18.926;2023-04-24T01:29:11;97268.91;;;15.04;53.50
39487;BME280;25173;50.430;18.926;2023-04-24T01:32:12;97269.88;;;15.00;53.72
39487;BME280;25173;50.430;18.926;2023-04-24T01:35:14;97260.53;;;14.92;53.80
39487;BME280;25173;50.430;18.926;2023-04-24T01:38:15;97258.47;;;14.89;53.83
39487;BME280;25173;50.430;18.926;2023-04-24T01:41:15;97260.22;;;14.85;53.82
39487;BME280;25173;50.430;18.926;2023-04-24T01:44:17;97253.78;;;14.81;53.73
39487;BME280;25173;50.430;18.926;2023-04-24T01:47:17;97258.94;;;14.74;53.53
39487;BME280;25173;50.430;18.926;2023-04-24T01:50:18;97252.16;;;14.71;53.30
39487;BME280;25173;50.430;18.926;2023-04-24T01:53:19;97241.38;;;14.66;53.44
39487;BME280;25173;50.430;18.926;2023-04-24T01:56:20;97243.44;;;14.61;53.72
39487;BME280;25173;50.430;18.926;2023-04-24T01:59:21;97238.63;;;14.58;53.36
39487;BME280;25173;50.430;18.926;2023-04-24T02:02:23;97242.50;;;14.57;53.45
39487;BME280;25173;50.430;18.926;2023-04-24T02:05:24;97239.13;;;14.51;53.54
39487;BME280;25173;50.430;18.926;2023-04-24T02:08:25;97240.56;;;14.49;53.58
39487;BME280;25173;50.430;18.926;2023-04-24T02:11:26;97241.53;;;14.44;53.70
39487;BME280;25173;50.430;18.926;2023-04-24T02:14:26;97233.63;;;14.43;53.45
39487;BME280;25173;50.430;18.926;2023-04-24T02:17:27;97240.22;;;14.42;53.24
39487;BME280;25173;50.430;18.926;2023-04-24T02:20:27;97237.81;;;14.40;53.21
39487;BME280;25173;50.430;18.926;2023-04-24T02:23:28;97232.03;;;14.42;53.29
39487;BME280;25173;50.430;18.926;2023-04-24T02:26:28;97227.66;;;14.41;53.06
39487;BME280;25173;50.430;18.926;2023-04-24T02:29:30;97220.44;;;14.45;52.42
39487;BME280;25173;50.430;18.926;2023-04-24T02:32:31;97219.44;;;14.49;51.93
39487;BME280;25173;50.430;18.926;2023-04-24T02:35:32;97220.91;;;14.55;51.64
39487;BME280;25173;50.430;18.926;2023-04-24T02:38:32;97221.53;;;14.61;51.49
39487;BME280;25173;50.430;18.926;2023-04-24T02:41:33;97217.84;;;14.65;51.33
39487;BME280;25173;50.430;18.926;2023-04-24T02:44:33;97223.16;;;14.70;51.12
39487;BME280;25173;50.430;18.926;2023-04-24T02:47:34;97214.59;;;14.81;50.54
39487;BME280;25173;50.430;18.926;2023-04-24T02:50:34;97220.53;;;14.91;50.12
39487;BME280;25173;50.430;18.926;2023-04-24T02:53:35;97210.69;;;14.99;49.84
39487;BME280;25173;50.430;18.926;2023-04-24T02:56:36;97202.94;;;15.09;49.34
39487;BME280;25173;50.430;18.926;2023-04-24T02:59:39;97213.53;;;15.20;48.78
39487;BME280;25173;50.430;18.926;2023-04-24T03:02:40;97206.09;;;15.29;48.84
39487;BME280;25173;50.430;18.926;2023-04-24T03:05:40;97208.19;;;15.32;48.68
39487;BME280;25173;50.430;18.926;2023-04-24T03:08:41;97209.63;;;15.38;48.36
39487;BME280;25173;50.430;18.926;2023-04-24T03:11:41;97211.03;;;15.44;48.30
39487;BME280;25173;50.430;18.926;2023-04-24T03:14:42;97209.59;;;15.46;48.25
39487;BME280;25173;50.430;18.926;2023-04-24T03:17:43;97214.41;;;15.49;48.28
39487;BME280;25173;50.430;18.926;2023-04-24T03:20:45;97210.53;;;15.50;48.20
39487;BME280;25173;50.430;18.926;2023-04-24T03:23:47;97207.97;;;15.45;48.14
39487;BME280;25173;50.430;18.926;2023-04-24T03:26:49;97213.31;;;15.42;47.98
39487;BME280;25173;50.430;18.926;2023-04-24T03:30:22;97209.13;;;15.36;47.67
39487;BME280;25173;50.430;18.926;2023-04-24T03:33:31;97219.81;;;15.29;47.50
39487;BME280;25173;50.430;18.926;2023-04-24T03:36:34;97211.75;;;15.24;47.94
39487;BME280;25173;50.430;18.926;2023-04-24T03:39:35;97213.22;;;15.21;48.15
39487;BME280;25173;50.430;18.926;2023-04-24T03:42:36;97209.03;;;15.15;47.80
39487;BME280;25173;50.430;18.926;2023-04-24T03:45:36;97206.16;;;15.11;47.96
39487;BME280;25173;50.430;18.926;2023-04-24T03:48:37;97204.88;;;15.09;47.45
39487;BME280;25173;50.430;18.926;2023-04-24T03:51:38;97207.44;;;15.05;47.92
39487;BME280;25173;50.430;18.926;2023-04-24T03:54:55;97216.78;;;15.04;47.87
39487;BME280;25173;50.430;18.926;2023-04-24T03:57:57;97214.06;;;15.04;47.73
39487;BME280;25173;50.430;18.926;2023-04-24T04:00:59;97213.28;;;15.04;47.22
39487;BME280;25173;50.430;18.926;2023-04-24T04:04:15;97214.53;;;15.06;48.31
39487;BME280;25173;50.430;18.926;2023-04-24T04:07:17;97207.00;;;15.03;47.25
39487;BME280;25173;50.430;18.926;2023-04-24T04:10:17;97206.00;;;15.08;46.89
39487;BME280;25173;50.430;18.926;2023-04-24T04:13:18;97214.19;;;15.17;46.55
39487;BME280;25173;50.430;18.926;2023-04-24T04:16:19;97213.50;;;15.28;46.44
39487;BME280;25173;50.430;18.926;2023-04-24T04:19:21;97206.06;;;15.37;46.45
39487;BME280;25173;50.430;18.926;2023-04-24T04:22:22;97210.72;;;15.45;46.33
39487;BME280;25173;50.430;18.926;2023-04-24T04:25:25;97210.41;;;15.56;46.52
39487;BME280;25173;50.430;18.926;2023-04-24T04:28:26;97212.75;;;15.66;46.09
39487;BME280;25173;50.430;18.926;2023-04-24T04:31:27;97207.03;;;15.79;45.96
39487;BME280;25173;50.430;18.926;2023-04-24T04:34:28;97204.53;;;15.95;46.00
39487;BME280;25173;50.430;18.926;2023-04-24T04:37:31;97211.53;;;16.13;45.79
39487;BME280;25173;50.430;18.926;2023-04-24T04:40:49;97213.47;;;16.34;45.11
39487;BME280;25173;50.430;18.926;2023-04-24T04:43:52;97211.88;;;16.53;44.61
39487;BME280;25173;50.430;18.926;2023-04-24T04:46:54;97214.97;;;16.73;44.36
39487;BME280;25173;50.430;18.926;2023-04-24T04:50:01;97210.91;;;16.91;44.05
39487;BME280;25173;50.430;18.926;2023-04-24T04:53:05;97197.00;;;17.08;43.95
39487;BME280;25173;50.430;18.926;2023-04-24T04:56:10;97204.84;;;17.30;43.69
39487;BME280;25173;50.430;18.926;2023-04-24T04:59:15;97203.75;;;17.56;43.77
39487;BME280;25173;50.430;18.926;2023-04-24T05:02:15;97212.75;;;17.77;43.28
39487;BME280;25173;50.430;18.926;2023-04-24T05:05:17;97209.97;;;17.89;43.48
39487;BME280;25173;50.430;18.926;2023-04-24T05:08:18;97205.38;;;18.05;43.26
39487;BME280;25173;50.430;18.926;2023-04-24T05:11:18;97205.47;;;18.21;43.03
39487;BME280;25173;50.430;18.926;2023-04-24T05:14:19;97205.09;;;18.35;42.77
39487;BME280;25173;50.430;18.926;2023-04-24T05:17:20;97199.34;;;18.52;42.65
39487;BME280;25173;50.430;18.926;2023-04-24T05:20:20;97197.00;;;18.66;42.41
39487;BME280;25173;50.430;18.926;2023-04-24T05:23:21;97200.38;;;18.87;42.27
39487;BME280;25173;50.430;18.926;2023-04-24T05:26:26;97202.13;;;19.08;42.13
39487;BME280;25173;50.430;18.926;2023-04-24T05:29:26;97195.81;;;19.23;41.97
39487;BME280;25173;50.430;18.926;2023-04-24T05:32:28;97190.66;;;19.37;41.56
39487;BME280;25173;50.430;18.926;2023-04-24T05:35:29;97191.78;;;19.48;41.13
39487;BME280;25173;50.430;18.926;2023-04-24T05:38:30;97196.06;;;19.61;40.61
39487;BME280;25173;50.430;18.926;2023-04-24T05:41:31;97200.25;;;19.71;40.52
39487;BME280;25173;50.430;18.926;2023-04-24T05:44:31;97205.69;;;19.83;40.93
39487;BME280;25173;50.430;18.926;2023-04-24T05:47:33;97202.09;;;19.98;40.66
39487;BME280;25173;50.430;18.926;2023-04-24T05:50:34;97199.56;;;20.09;40.66
39487;BME280;25173;50.430;18.926;2023-04-24T05:53:34;97194.31;;;20.20;40.29
39487;BME280;25173;50.430;18.926;2023-04-24T05:56:35;97196.13;;;20.31;40.22
39487;BME280;25173;50.430;18.926;2023-04-24T05:59:40;97191.59;;;20.39;40.20
39487;BME280;25173;50.430;18.926;2023-04-24T06:02:41;97186.97;;;20.43;39.96
39487;BME280;25173;50.430;18.926;2023-04-24T06:05:45;97194.75;;;20.37;39.36
39487;BME280;25173;50.430;18.926;2023-04-24T06:08:47;97191.69;;;20.42;39.63
39487;BME280;25173;50.430;18.926;2023-04-24T06:11:49;97191.84;;;20.49;39.38
39487;BME280;25173;50.430;18.926;2023-04-24T06:14:50;97182.44;;;20.54;39.55
39487;BME280;25173;50.430;18.926;2023-04-24T06:17:58;97180.25;;;20.63;39.64
39487;BME280;25173;50.430;18.926;2023-04-24T06:21:00;97186.75;;;20.71;39.29
39487;BME280;25173;50.430;18.926;2023-04-24T06:24:00;97184.56;;;20.80;38.99
39487;BME280;25173;50.430;18.926;2023-04-24T06:27:02;97182.72;;;20.68;38.78
39487;BME280;25173;50.430;18.926;2023-04-24T06:30:03;97187.41;;;20.64;39.12
39487;BME280;25173;50.430;18.926;2023-04-24T06:33:04;97182.22;;;20.63;38.43
39487;BME280;25173;50.430;18.926;2023-04-24T06:36:04;97179.31;;;20.56;38.87
39487;BME280;25173;50.430;18.926;2023-04-24T06:39:05;97179.63;;;20.50;38.75
39487;BME280;25173;50.430;18.926;2023-04-24T06:42:06;97178.47;;;20.51;38.78
39487;BME280;25173;50.430;18.926;2023-04-24T06:45:08;97182.22;;;20.43;38.37
39487;BME280;25173;50.430;18.926;2023-04-24T06:48:09;97180.03;;;20.33;39.11
39487;BME280;25173;50.430;18.926;2023-04-24T06:51:10;97182.06;;;20.36;38.73
39487;BME280;25173;50.430;18.926;2023-04-24T06:54:11;97177.50;;;20.28;38.13
39487;BME280;25173;50.430;18.926;2023-04-24T06:57:11;97175.59;;;20.13;38.37
39487;BME280;25173;50.430;18.926;2023-04-24T07:00:12;97178.91;;;20.03;38.45
39487;BME280;25173;50.430;18.926;2023-04-24T07:03:13;97182.19;;;20.08;38.41
39487;BME280;25173;50.430;18.926;2023-04-24T07:06:14;97178.34;;;20.13;38.07
39487;BME280;25173;50.430;18.926;2023-04-24T07:09:16;97174.50;;;20.17;38.59
39487;BME280;25173;50.430;18.926;2023-04-24T07:12:18;97168.63;;;20.19;38.21
39487;BME280;25173;50.430;18.926;2023-04-24T07:15:20;97169.06;;;20.21;38.52
39487;BME280;25173;50.430;18.926;2023-04-24T07:18:21;97167.16;;;20.25;38.37
39487;BME280;25173;50.430;18.926;2023-04-24T07:21:22;97161.00;;;20.32;38.19
39487;BME280;25173;50.430;18.926;2023-04-24T07:24:22;97160.09;;;20.43;38.43
39487;BME280;25173;50.430;18.926;2023-04-24T07:27:24;97161.84;;;20.51;38.51
39487;BME280;25173;50.430;18.926;2023-04-24T07:30:25;97157.34;;;20.63;38.79
39487;BME280;25173;50.430;18.926;2023-04-24T07:33:26;97151.28;;;20.76;38.25
39487;BME280;25173;50.430;18.926;2023-04-24T07:36:27;97145.53;;;20.85;38.01
39487;BME280;25173;50.430;18.926;2023-04-24T07:39:28;97150.16;;;21.00;37.18
39487;BME280;25173;50.430;18.926;2023-04-24T07:42:29;97147.38;;;21.19;36.53
39487;BME280;25173;50.430;18.926;2023-04-24T07:45:31;97147.03;;;21.44;37.40
39487;BME280;25173;50.430;18.926;2023-04-24T07:48:34;97148.13;;;21.62;36.68
39487;BME280;25173;50.430;18.926;2023-04-24T07:51:35;97140.19;;;21.87;36.61
39487;BME280;25173;50.430;18.926;2023-04-24T07:54:38;97147.66;;;22.05;35.97
39487;BME280;25173;50.430;18.926;2023-04-24T07:57:39;97139.97;;;22.22;36.32
39487;BME280;25173;50.430;18.926;2023-04-24T08:00:39;97141.00;;;22.40;36.03
39487;BME280;25173;50.430;18.926;2023-04-24T08:03:40;97143.28;;;22.64;35.71
39487;BME280;25173;50.430;18.926;2023-04-24T08:06:40;97138.22;;;22.70;34.71
39487;BME280;25173;50.430;18.926;2023-04-24T08:09:41;97131.97;;;22.76;35.19
39487;BME280;25173;50.430;18.926;2023-04-24T08:12:42;97134.00;;;22.79;34.40
39487;BME280;25173;50.430;18.926;2023-04-24T08:15:42;97127.28;;;22.80;33.81
39487;BME280;25173;50.430;18.926;2023-04-24T08:18:43;97132.47;;;22.86;33.85
39487;BME280;25173;50.430;18.926;2023-04-24T08:21:43;97131.81;;;22.96;33.56
39487;BME280;25173;50.430;18.926;2023-04-24T08:24:44;97125.94;;;23.04;34.02
39487;BME280;25173;50.430;18.926;2023-04-24T08:27:45;97125.22;;;23.11;34.15
39487;BME280;25173;50.430;18.926;2023-04-24T08:30:46;97124.88;;;23.16;33.49
39487;BME280;25173;50.430;18.926;2023-04-24T08:33:54;97132.03;;;23.20;32.93
39487;BME280;25173;50.430;18.926;2023-04-24T08:36:55;97134.88;;;23.24;33.17
39487;BME280;25173;50.430;18.926;2023-04-24T08:39:56;97127.09;;;23.40;33.85
39487;BME280;25173;50.430;18.926;2023-04-24T08:42:57;97122.44;;;23.48;33.68
39487;BME280;25173;50.430;18.926;2023-04-24T08:45:58;97119.69;;;23.55;33.68
39487;BME280;25173;50.430;18.926;2023-04-24T08:49:00;97121.25;;;23.52;33.75
39487;BME280;25173;50.430;18.926;2023-04-24T08:52:01;97118.91;;;23.58;33.63
39487;BME280;25173;50.430;18.926;2023-04-24T08:55:03;97115.75;;;23.56;33.29
39487;BME280;25173;50.430;18.926;2023-04-24T08:58:04;97115.81;;;23.67;33.71
39487;BME280;25173;50.430;18.926;2023-04-24T09:01:11;97115.59;;;23.86;32.14
39487;BME280;25173;50.430;18.926;2023-04-24T09:04:37;97119.59;;;23.92;32.65
39487;BME280;25173;50.430;18.926;2023-04-24T09:07:39;97120.78;;;23.91;32.12
39487;BME280;25173;50.430;18.926;2023-04-24T09:10:42;97119.16;;;23.90;32.39
39487;BME280;25173;50.430;18.926;2023-04-24T09:13:43;97115.25;;;23.98;32.33
39487;BME280;25173;50.430;18.926;2023-04-24T09:16:44;97117.25;;;24.01;32.78
39487;BME280;25173;50.430;18.926;2023-04-24T09:19:45;97106.19;;;24.08;32.23
39487;BME280;25173;50.430;18.926;2023-04-24T09:22:45;97112.56;;;24.12;31.34
39487;BME280;25173;50.430;18.926;2023-04-24T09:25:54;97102.66;;;24.18;31.99
39487;BME280;25173;50.430;18.926;2023-04-24T09:28:54;97105.91;;;24.27;31.75
39487;BME280;25173;50.430;18.926;2023-04-24T09:31:55;97096.03;;;24.37;32.40
39487;BME280;25173;50.430;18.926;2023-04-24T09:38:08;97087.78;;;24.65;32.38
39487;BME280;25173;50.430;18.926;2023-04-24T09:41:13;97080.25;;;24.73;31.55
39487;BME280;25173;50.430;18.926;2023-04-24T09:44:21;97087.03;;;24.72;30.08
39487;BME280;25173;50.430;18.926;2023-04-24T09:47:22;97085.03;;;24.72;30.48
39487;BME280;25173;50.430;18.926;2023-04-24T09:50:22;97082.22;;;24.65;30.13
39487;BME280;25173;50.430;18.926;2023-04-24T09:53:24;97077.78;;;24.54;30.17
39487;BME280;25173;50.430;18.926;2023-04-24T09:56:25;97075.81;;;24.54;30.00
39487;BME280;25173;50.430;18.926;2023-04-24T09:59:27;97079.38;;;24.48;29.98
39487;BME280;25173;50.430;18.926;2023-04-24T10:02:31;97072.63;;;24.52;30.54
39487;BME280;25173;50.430;18.926;2023-04-24T10:05:34;97077.84;;;24.64;30.72
39487;BME280;25173;50.430;18.926;2023-04-24T10:08:36;97061.56;;;24.73;30.63
39487;BME280;25173;50.430;18.926;2023-04-24T10:11:37;97057.19;;;24.72;30.83
39487;BME280;25173;50.430;18.926;2023-04-24T10:14:37;97064.78;;;24.86;30.45
39487;BME280;25173;50.430;18.926;2023-04-24T10:17:39;97065.59;;;24.90;29.74
39487;BME280;25173;50.430;18.926;2023-04-24T10:20:40;97067.22;;;24.95;29.40
39487;BME280;25173;50.430;18.926;2023-04-24T10:23:42;97061.66;;;25.02;29.05
39487;BME280;25173;50.430;18.926;2023-04-24T10:26:43;97066.03;;;25.21;29.20
39487;BME280;25173;50.430;18.926;2023-04-24T10:29:45;97062.09;;;25.46;30.34
39487;BME280;25173;50.430;18.926;2023-04-24T10:32:47;97059.72;;;25.70;30.32
39487;BME280;25173;50.430;18.926;2023-04-24T10:35:50;97058.06;;;25.86;29.45
39487;BME280;25173;50.430;18.926;2023-04-24T10:38:52;97069.63;;;25.96;29.17
39487;BME280;25173;50.430;18.926;2023-04-24T10:41:55;97061.25;;;25.96;28.80
39487;BME280;25173;50.430;18.926;2023-04-24T10:44:58;97056.03;;;26.01;28.67
39487;BME280;25173;50.430;18.926;2023-04-24T10:48:01;97057.25;;;26.07;28.56
39487;BME280;25173;50.430;18.926;2023-04-24T10:51:04;97055.22;;;26.22;28.97
39487;BME280;25173;50.430;18.926;2023-04-24T10:54:28;97050.41;;;26.33;28.66
39487;BME280;25173;50.430;18.926;2023-04-24T10:57:29;97050.00;;;26.35;28.77
39487;BME280;25173;50.430;18.926;2023-04-24T11:00:31;97049.59;;;26.36;28.81
39487;BME280;25173;50.430;18.926;2023-04-24T11:03:33;97046.41;;;26.34;28.89
39487;BME280;25173;50.430;18.926;2023-04-24T11:06:36;97040.84;;;26.34;28.81
39487;BME280;25173;50.430;18.926;2023-04-24T11:09:37;97046.41;;;26.34;29.19
39487;BME280;25173;50.430;18.926;2023-04-24T11:12:40;97044.41;;;26.31;28.92
39487;BME280;25173;50.430;18.926;2023-04-24T11:15:41;97044.84;;;26.26;29.50
39487;BME280;25173;50.430;18.926;2023-04-24T11:18:43;97046.03;;;26.25;29.43
39487;BME280;25173;50.430;18.926;2023-04-24T11:21:59;97046.84;;;26.18;29.10
39487;BME280;25173;50.430;18.926;2023-04-24T11:25:02;97040.47;;;26.18;29.09
39487;BME280;25173;50.430;18.926;2023-04-24T11:28:05;97046.41;;;26.38;28.62
39487;BME280;25173;50.430;18.926;2023-04-24T11:31:44;97053.53;;;26.49;27.39
39487;BME280;25173;50.430;18.926;2023-04-24T11:35:06;97044.38;;;26.38;28.75
39487;BME280;25173;50.430;18.926;2023-04-24T11:38:09;97060.41;;;26.27;29.38
39487;BME280;25173;50.430;18.926;2023-04-24T11:41:11;97064.84;;;25.96;29.43
39487;BME280;25173;50.430;18.926;2023-04-24T11:44:13;97059.31;;;25.61;29.54
39487;BME280;25173;50.430;18.926;2023-04-24T11:47:13;97076.41;;;25.24;30.17
39487;BME280;25173;50.430;18.926;2023-04-24T11:50:17;97075.16;;;24.93;30.23
39487;BME280;25173;50.430;18.926;2023-04-24T11:53:21;97068.66;;;24.57;31.02
39487;BME280;25173;50.430;18.926;2023-04-24T11:56:23;97077.41;;;24.52;31.58
39487;BME280;25173;50.430;18.926;2023-04-24T11:59:24;97082.94;;;24.45;31.88
39487;BME280;25173;50.430;18.926;2023-04-24T12:02:25;97078.41;;;24.19;32.22
39487;BME280;25173;50.430;18.926;2023-04-24T12:05:27;97078.31;;;24.01;32.44
39487;BME280;25173;50.430;18.926;2023-04-24T12:08:28;97072.22;;;23.78;32.94
39487;BME280;25173;50.430;18.926;2023-04-24T12:11:29;97072.00;;;23.49;33.31
39487;BME280;25173;50.430;18.926;2023-04-24T12:14:29;97070.13;;;23.20;33.74
39487;BME280;25173;50.430;18.926;2023-04-24T12:17:32;97067.69;;;23.11;33.75
39487;BME280;25173;50.430;18.926;2023-04-24T12:20:33;97071.66;;;23.14;33.83
39487;BME280;25173;50.430;18.926;2023-04-24T12:23:34;97072.03;;;23.09;32.76
39487;BME280;25173;50.430;18.926;2023-04-24T12:26:35;97054.94;;;23.07;32.67
39487;BME280;25173;50.430;18.926;2023-04-24T12:29:36;97054.25;;;23.17;32.43
39487;BME280;25173;50.430;18.926;2023-04-24T12:32:41;97052.31;;;23.25;32.44
39487;BME280;25173;50.430;18.926;2023-04-24T12:35:42;97058.06;;;23.46;32.63
39487;BME280;25173;50.430;18.926;2023-04-24T12:38:44;97056.91;;;23.50;32.91
39487;BME280;25173;50.430;18.926;2023-04-24T12:41:56;97053.84;;;23.66;32.84
39487;BME280;25173;50.430;18.926;2023-04-24T12:45:04;97046.78;;;23.76;32.89
39487;BME280;25173;50.430;18.926;2023-04-24T12:48:05;97045.16;;;23.71;32.86
39487;BME280;25173;50.430;18.926;2023-04-24T12:51:05;97049.09;;;23.67;32.95
39487;BME280;25173;50.430;18.926;2023-04-24T12:54:06;97038.84;;;23.78;33.37
39487;BME280;25173;50.430;18.926;2023-04-24T12:57:07;97059.78;;;23.65;33.25
39487;BME280;25173;50.430;18.926;2023-04-24T13:00:08;97058.09;;;23.49;33.66
39487;BME280;25173;50.430;18.926;2023-04-24T13:03:09;97044.81;;;23.29;33.94
39487;BME280;25173;50.430;18.926;2023-04-24T13:06:10;97045.41;;;23.08;34.60
39487;BME280;25173;50.430;18.926;2023-04-24T13:09:10;97038.00;;;22.78;34.76
39487;BME280;25173;50.430;18.926;2023-04-24T13:12:11;97028.28;;;22.62;35.19
39487;BME280;25173;50.430;18.926;2023-04-24T13:15:12;97035.00;;;22.61;35.37
39487;BME280;25173;50.430;18.926;2023-04-24T13:18:13;97024.31;;;22.59;35.57
39487;BME280;25173;50.430;18.926;2023-04-24T13:21:14;97026.59;;;22.54;35.74
39487;BME280;25173;50.430;18.926;2023-04-24T13:24:14;97047.91;;;22.46;35.89
39487;BME280;25173;50.430;18.926;2023-04-24T13:27:16;97019.81;;;22.14;35.88
39487;BME280;25173;50.430;18.926;2023-04-24T13:30:17;97030.44;;;21.82;36.40
39487;BME280;25173;50.430;18.926;2023-04-24T13:33:18;97031.41;;;21.67;36.29
39487;BME280;25173;50.430;18.926;2023-04-24T13:36:18;97038.97;;;21.44;36.52
39487;BME280;25173;50.430;18.926;2023-04-24T13:39:19;97024.91;;;21.29;36.83
39487;BME280;25173;50.430;18.926;2023-04-24T13:42:19;97026.28;;;21.16;36.72
39487;BME280;25173;50.430;18.926;2023-04-24T13:45:20;97021.41;;;21.10;37.04
39487;BME280;25173;50.430;18.926;2023-04-24T13:48:21;97035.19;;;21.06;37.23
39487;BME280;25173;50.430;18.926;2023-04-24T13:51:22;97028.78;;;21.02;37.16
39487;BME280;25173;50.430;18.926;2023-04-24T13:54:22;97029.09;;;20.97;37.40
39487;BME280;25173;50.430;18.926;2023-04-24T13:57:25;97027.91;;;20.98;37.23
39487;BME280;25173;50.430;18.926;2023-04-24T14:00:27;97026.63;;;20.92;37.21
39487;BME280;25173;50.430;18.926;2023-04-24T14:03:28;97025.44;;;20.89;37.56
39487;BME280;25173;50.430;18.926;2023-04-24T14:06:29;97027.91;;;20.98;37.68
39487;BME280;25173;50.430;18.926;2023-04-24T14:09:29;97032.00;;;21.04;37.40
39487;BME280;25173;50.430;18.926;2023-04-24T14:12:30;97035.53;;;21.05;37.33
39487;BME280;25173;50.430;18.926;2023-04-24T14:15:31;97028.91;;;21.09;37.53
39487;BME280;25173;50.430;18.926;2023-04-24T14:18:31;97024.66;;;21.15;37.57
39487;BME280;25173;50.430;18.926;2023-04-24T14:21:32;97025.13;;;21.17;37.75
39487;BME280;25173;50.430;18.926;2023-04-24T14:24:33;97020.75;;;21.16;37.60
39487;BME280;25173;50.430;18.926;2023-04-24T14:27:34;97023.06;;;21.14;37.93
39487;BME280;25173;50.430;18.926;2023-04-24T14:30:35;97039.78;;;21.18;38.11
39487;BME280;25173;50.430;18.926;2023-04-24T14:33:37;97031.88;;;21.20;38.28
39487;BME280;25173;50.430;18.926;2023-04-24T14:36:38;97024.81;;;21.22;38.28
39487;BME280;25173;50.430;18.926;2023-04-24T14:39:38;97031.22;;;21.26;38.44
39487;BME280;25173;50.430;18.926;2023-04-24T14:42:39;97023.06;;;21.37;38.41
39487;BME280;25173;50.430;18.926;2023-04-24T14:45:40;97028.66;;;21.41;38.24
39487;BME280;25173;50.430;18.926;2023-04-24T14:48:41;97026.25;;;21.39;38.40
39487;BME280;25173;50.430;18.926;2023-04-24T14:51:42;97021.41;;;21.33;38.47
39487;BME280;25173;50.430;18.926;2023-04-24T14:54:43;97028.56;;;21.11;38.87
39487;BME280;25173;50.430;18.926;2023-04-24T14:57:43;97020.50;;;21.02;39.10
39487;BME280;25173;50.430;18.926;2023-04-24T15:00:44;97033.09;;;21.00;39.19
39487;BME280;25173;50.430;18.926;2023-04-24T15:03:45;97036.22;;;20.98;39.47
39487;BME280;25173;50.430;18.926;2023-04-24T15:06:46;97035.31;;;20.90;39.54
39487;BME280;25173;50.430;18.926;2023-04-24T15:09:47;97029.88;;;20.98;40.00
39487;BME280;25173;50.430;18.926;2023-04-24T15:12:47;97038.81;;;21.10;39.66
39487;BME280;25173;50.430;18.926;2023-04-24T15:15:48;97037.41;;;21.20;39.94
39487;BME280;25173;50.430;18.926;2023-04-24T15:18:49;97041.53;;;21.29;39.93
39487;BME280;25173;50.430;18.926;2023-04-24T15:21:49;97033.44;;;21.17;40.31
39487;BME280;25173;50.430;18.926;2023-04-24T15:24:50;97034.22;;;21.18;40.32
39487;BME280;25173;50.430;18.926;2023-04-24T15:27:50;97038.41;;;21.31;40.73
39487;BME280;25173;50.430;18.926;2023-04-24T15:30:51;97038.41;;;21.31;40.42
39487;BME280;25173;50.430;18.926;2023-04-24T15:33:52;97034.81;;;21.08;40.57
39487;BME280;25173;50.430;18.926;2023-04-24T15:36:52;97040.47;;;20.92;40.49
39487;BME280;25173;50.430;18.926;2023-04-24T15:39:53;97035.13;;;20.80;40.67
39487;BME280;25173;50.430;18.926;2023-04-24T15:42:54;97033.19;;;20.61;41.02
39487;BME280;25173;50.430;18.926;2023-04-24T15:45:55;97033.00;;;20.50;41.36
39487;BME280;25173;50.430;18.926;2023-04-24T15:48:56;97033.72;;;20.47;41.17
39487;BME280;25173;50.430;18.926;2023-04-24T15:51:56;97038.91;;;20.49;41.42
39487;BME280;25173;50.430;18.926;2023-04-24T15:54:57;97035.81;;;20.54;41.49